createdAt,value
2018-09-03T00:01:27.386Z,89.00
2018-09-03T00:04:26.659Z,89.10
2018-09-03T00:07:25.634Z,89.30
2018-09-03T00:10:23.803Z,89.70
2018-09-03T00:13:21.709Z,90.20
2018-09-03T00:16:19.910Z,90.00
2018-09-03T00:19:18.052Z,90.00
2018-09-03T00:22:16.056Z,90.20
2018-09-03T00:25:14.218Z,90.20
2018-09-03T00:28:12.400Z,90.10
2018-09-03T00:31:17.426Z,90.20
2018-09-03T00:34:21.471Z,90.00
2018-09-03T00:37:26.417Z,90.00
2018-09-03T00:40:30.724Z,90.00
2018-09-03T00:44:35.248Z,89.90
2018-09-03T00:47:33.365Z,89.80
2018-09-03T00:50:32.434Z,90.10
2018-09-03T00:53:31.670Z,90.30
2018-09-03T00:56:30.574Z,90.50
2018-09-03T00:59:30.754Z,90.50
2018-09-03T01:02:29.028Z,90.50
2018-09-03T01:05:27.785Z,90.70
2018-09-03T01:08:26.890Z,90.60
2018-09-03T01:11:25.512Z,90.60
2018-09-03T01:14:23.732Z,90.50
2018-09-03T01:17:22.070Z,90.60
2018-09-03T01:20:20.114Z,90.70
2018-09-03T01:23:18.577Z,90.90
2018-09-03T01:26:16.857Z,91.00
2018-09-03T01:29:16.456Z,90.90
2018-09-03T01:32:14.830Z,90.90
2018-09-03T01:35:13.346Z,91.00
2018-09-03T01:38:12.361Z,90.80
2018-09-03T01:41:10.539Z,90.80
2018-09-03T01:44:08.908Z,90.70
2018-09-03T01:47:07.883Z,90.70
2018-09-03T01:50:06.044Z,90.50
2018-09-03T01:53:04.218Z,90.40
2018-09-03T01:56:04.546Z,90.40
2018-09-03T01:59:02.894Z,90.30
2018-09-03T02:02:01.081Z,90.40
2018-09-03T02:04:59.318Z,90.30
2018-09-03T02:07:57.687Z,90.30
2018-09-03T02:10:55.733Z,90.20
2018-09-03T02:13:54.511Z,90.20
2018-09-03T02:16:54.490Z,90.10
2018-09-03T02:19:52.676Z,90.20
2018-09-03T02:22:50.910Z,90.50
2018-09-03T02:25:50.172Z,90.10
2018-09-03T02:28:49.327Z,90.20
2018-09-03T02:31:47.695Z,90.10
2018-09-03T02:34:46.998Z,90.00
2018-09-03T02:37:45.989Z,90.10
2018-09-03T02:40:44.256Z,90.00
2018-09-03T02:43:42.367Z,90.00
2018-09-03T02:46:40.469Z,90.00
2018-09-03T02:49:38.443Z,90.00
2018-09-03T02:52:36.667Z,90.10
2018-09-03T02:55:34.695Z,90.00
2018-09-03T02:58:32.661Z,89.90
2018-09-03T03:01:30.816Z,90.00
2018-09-03T03:04:28.889Z,90.10
2018-09-03T03:07:27.057Z,90.20
2018-09-03T03:10:25.131Z,90.10
2018-09-03T03:13:23.275Z,90.00
2018-09-03T03:16:22.563Z,90.20
2018-09-03T03:19:20.782Z,90.30
2018-09-03T03:22:19.590Z,90.20
2018-09-03T03:25:17.561Z,90.20
2018-09-03T03:28:16.446Z,90.20
2018-09-03T03:31:14.400Z,90.10
2018-09-03T03:34:12.663Z,90.50
2018-09-03T03:37:10.731Z,90.20
2018-09-03T03:40:09.003Z,90.00
2018-09-03T03:43:07.024Z,90.00
2018-09-03T03:46:05.127Z,90.00
2018-09-03T03:49:03.409Z,90.00
2018-09-03T03:52:01.522Z,90.20
2018-09-03T03:55:00.708Z,90.10
2018-09-03T03:57:58.696Z,90.10
2018-09-03T04:00:56.737Z,90.00
2018-09-03T04:03:54.815Z,90.00
2018-09-03T04:06:52.863Z,90.00
2018-09-03T04:09:51.038Z,90.10
2018-09-03T04:12:53.996Z,90.10
2018-09-03T04:15:52.156Z,90.10
2018-09-03T04:18:50.218Z,90.20
2018-09-03T04:21:48.676Z,90.10
2018-09-03T04:24:46.739Z,90.20
2018-09-03T04:27:44.808Z,90.20
2018-09-03T04:30:42.971Z,90.10
2018-09-03T04:33:41.063Z,90.20
2018-09-03T04:36:39.109Z,90.10
2018-09-03T04:39:37.166Z,90.20
2018-09-03T04:42:35.129Z,90.20
2018-09-03T04:45:33.544Z,90.20
2018-09-03T04:48:32.035Z,90.20
2018-09-03T04:51:30.116Z,90.30
2018-09-03T04:54:28.418Z,90.30
2018-09-03T04:57:26.747Z,90.20
2018-09-03T05:00:25.480Z,90.20
2018-09-03T05:03:24.392Z,90.30
2018-09-03T05:06:22.556Z,90.30
2018-09-03T05:09:20.782Z,90.30
2018-09-03T05:12:18.962Z,90.30
2018-09-03T05:15:17.039Z,90.20
2018-09-03T05:18:15.312Z,90.20
2018-09-03T05:21:14.495Z,90.00
2018-09-03T05:24:12.460Z,90.30
2018-09-03T05:27:10.621Z,90.30
2018-09-03T05:30:08.792Z,90.30
2018-09-03T05:33:06.952Z,90.30
2018-09-03T05:36:05.185Z,90.30
2018-09-03T05:39:03.377Z,90.20
2018-09-03T05:42:01.484Z,90.20
2018-09-03T05:44:59.605Z,90.10
2018-09-03T05:47:57.770Z,89.90
2018-09-03T05:50:55.827Z,89.50
2018-09-03T05:53:54.042Z,89.20
2018-09-03T05:56:51.960Z,89.10
2018-09-03T05:59:50.145Z,89.10
2018-09-03T06:02:48.229Z,89.40
2018-09-03T06:05:46.324Z,89.40
2018-09-03T06:08:44.281Z,89.80
2018-09-03T06:11:43.167Z,90.00
2018-09-03T06:14:45.478Z,90.30
2018-09-03T06:17:44.344Z,90.30
2018-09-03T06:20:42.460Z,90.30
2018-09-03T06:23:40.620Z,90.00
2018-09-03T06:26:38.617Z,89.80
2018-09-03T06:29:36.635Z,89.30
2018-09-03T06:32:34.690Z,88.60
2018-09-03T06:35:32.872Z,89.20
2018-09-03T06:38:30.995Z,88.10
2018-09-03T06:41:29.033Z,87.40
2018-09-03T06:44:27.142Z,87.00
2018-09-03T06:47:25.316Z,86.90
2018-09-03T06:50:24.628Z,86.20
2018-09-03T06:53:23.098Z,85.70
2018-09-03T06:56:21.228Z,85.70
2018-09-03T06:59:19.283Z,86.00
2018-09-03T07:03:42.091Z,85.50
2018-09-03T07:06:40.270Z,84.60
2018-09-03T07:09:38.286Z,84.90
2018-09-03T07:12:36.464Z,84.80
2018-09-03T07:15:34.726Z,84.00
2018-09-03T07:18:32.896Z,83.40
2018-09-03T07:21:31.057Z,82.90
2018-09-03T07:24:30.036Z,82.90
2018-09-03T07:27:29.272Z,82.50
2018-09-03T07:30:30.151Z,81.30
2018-09-03T07:33:29.127Z,81.10
2018-09-03T07:36:28.732Z,80.40
2018-09-03T07:39:28.559Z,79.30
2018-09-03T07:42:27.680Z,78.60
2018-09-03T07:45:25.717Z,78.30
2018-09-03T07:48:23.584Z,78.00
2018-09-03T07:51:22.652Z,77.20
2018-09-03T07:54:21.826Z,76.20
2018-09-03T07:57:21.813Z,75.10
2018-09-03T08:00:21.938Z,74.40
2018-09-03T08:03:22.168Z,74.40
2018-09-03T08:06:21.544Z,75.20
2018-09-03T08:09:23.614Z,76.00
2018-09-03T08:12:23.711Z,75.90
2018-09-03T08:15:25.253Z,76.00
2018-09-03T08:18:24.657Z,76.10
2018-09-03T08:21:24.807Z,76.00
2018-09-03T08:24:25.892Z,75.60
2018-09-03T08:27:25.827Z,74.90
2018-09-03T08:30:24.797Z,74.80
2018-09-03T08:33:23.941Z,74.70
2018-09-03T08:36:23.839Z,74.70
2018-09-03T08:39:22.005Z,75.00
2018-09-03T08:42:21.301Z,74.60
2018-09-03T08:45:20.390Z,73.80
2018-09-03T08:48:19.446Z,72.60
2018-09-03T08:51:18.530Z,71.90
2018-09-03T08:54:16.509Z,71.60
2018-09-03T08:57:15.582Z,71.30
2018-09-03T09:00:14.754Z,70.90
2018-09-03T09:03:17.830Z,70.20
2018-09-03T09:06:17.589Z,69.10
2018-09-03T09:09:17.580Z,67.60
2018-09-03T09:12:15.682Z,67.20
2018-09-03T09:15:13.930Z,65.20
2018-09-03T09:18:12.936Z,63.80
2018-09-03T09:21:11.129Z,62.80
2018-09-03T09:24:09.181Z,62.40
2018-09-03T09:27:07.246Z,60.70
2018-09-03T09:30:05.545Z,60.10
2018-09-03T09:33:04.442Z,59.00
2018-09-03T09:36:03.552Z,58.90
2018-09-03T09:39:02.644Z,60.00
2018-09-03T09:42:00.889Z,59.80
2018-09-03T09:44:59.755Z,59.40
2018-09-03T09:47:59.769Z,59.30
2018-09-03T09:50:57.865Z,59.00
2018-09-03T09:53:57.038Z,58.40
2018-09-03T09:56:56.128Z,58.40
2018-09-03T09:59:55.083Z,58.50
2018-09-03T10:02:53.408Z,57.90
2018-09-03T10:05:52.434Z,58.30
2018-09-03T10:08:52.455Z,58.10
2018-09-03T10:11:53.579Z,57.30
2018-09-03T10:14:51.763Z,56.40
2018-09-03T10:17:50.209Z,56.30
2018-09-03T10:20:49.178Z,53.80
2018-09-03T10:23:48.107Z,54.30
2018-09-03T10:26:46.106Z,54.40
2018-09-03T10:29:44.996Z,54.70
2018-09-03T10:32:43.153Z,54.70
2018-09-03T10:35:41.228Z,54.70
2018-09-03T10:38:40.207Z,55.30
2018-09-03T10:41:39.381Z,55.90
2018-09-03T10:44:38.542Z,56.00
2018-09-03T10:47:36.535Z,56.10
2018-09-03T10:50:34.640Z,56.10
2018-09-03T10:53:32.718Z,56.00
2018-09-03T10:56:30.967Z,55.30
2018-09-03T10:59:29.223Z,54.40
2018-09-03T11:02:28.202Z,54.60
2018-09-03T11:05:26.965Z,55.00
2018-09-03T11:08:25.045Z,55.40
2018-09-03T11:11:23.959Z,55.40
2018-09-03T11:14:22.074Z,55.00
2018-09-03T11:17:20.089Z,54.70
2018-09-03T11:20:21.224Z,54.80
2018-09-03T11:23:19.586Z,55.00
2018-09-03T11:26:17.721Z,55.20
2018-09-03T11:29:15.745Z,55.20
2018-09-03T11:32:13.876Z,54.50
2018-09-03T11:35:12.345Z,54.00
2018-09-03T11:38:10.638Z,53.30
2018-09-03T11:41:08.748Z,53.20
2018-09-03T11:44:06.824Z,52.20
2018-09-03T11:47:04.816Z,51.60
2018-09-03T11:50:02.952Z,51.10
2018-09-03T11:53:00.876Z,51.00
2018-09-03T11:55:58.764Z,50.00
2018-09-03T11:58:56.928Z,50.60
2018-09-03T12:01:55.152Z,50.60
2018-09-03T12:04:53.107Z,50.20
2018-09-03T12:07:51.145Z,49.40
2018-09-03T12:10:49.082Z,49.30
2018-09-03T12:13:47.911Z,49.30
2018-09-03T12:16:46.011Z,48.20
2018-09-03T12:19:44.172Z,48.70
2018-09-03T12:22:42.147Z,49.20
2018-09-03T12:25:41.074Z,48.20
2018-09-03T12:28:40.197Z,48.60
2018-09-03T12:31:38.252Z,48.50
2018-09-03T12:34:36.261Z,48.00
2018-09-03T12:37:34.372Z,47.40
2018-09-03T12:40:32.446Z,47.40
2018-09-03T12:43:30.372Z,47.40
2018-09-03T12:46:28.630Z,47.20
2018-09-03T12:49:26.843Z,47.10
2018-09-03T12:52:25.900Z,47.20
2018-09-03T12:55:23.784Z,47.40
2018-09-03T12:58:21.919Z,48.10
2018-09-03T13:01:19.936Z,47.00
2018-09-03T13:04:17.952Z,46.60
2018-09-03T13:07:17.060Z,45.40
2018-09-03T13:10:15.143Z,44.90
2018-09-03T13:13:13.038Z,44.30
2018-09-03T13:16:11.205Z,44.30
2018-09-03T13:19:09.571Z,44.70
2018-09-03T13:22:07.485Z,44.90
2018-09-03T13:25:05.503Z,44.50
2018-09-03T13:28:03.536Z,44.80
2018-09-03T13:31:01.664Z,44.90
2018-09-03T13:34:01.511Z,45.50
2018-09-03T13:36:59.575Z,45.00
2018-09-03T13:39:57.551Z,45.30
2018-09-03T13:42:55.603Z,45.70
2018-09-03T13:45:53.532Z,46.10
2018-09-03T13:48:51.413Z,46.30
2018-09-03T13:51:50.220Z,46.80
2018-09-03T13:54:48.131Z,47.60
2018-09-03T13:57:46.098Z,48.60
2018-09-03T14:00:44.060Z,49.40
2018-09-03T14:03:42.872Z,49.90
2018-09-03T14:06:40.692Z,50.40
2018-09-03T14:09:39.825Z,51.00
2018-09-03T14:12:37.935Z,51.50
2018-09-03T14:15:35.902Z,51.60
2018-09-03T14:18:35.791Z,51.80
2018-09-03T14:21:33.769Z,52.20
2018-09-03T14:24:31.830Z,52.10
2018-09-03T14:27:30.112Z,51.80
2018-09-03T14:30:28.124Z,51.70
2018-09-03T14:33:26.316Z,51.30
2018-09-03T14:36:24.427Z,51.30
2018-09-03T14:39:23.441Z,50.20
2018-09-03T14:42:22.427Z,49.20
2018-09-03T14:45:21.564Z,48.50
2018-09-03T14:48:19.457Z,48.50
2018-09-03T14:51:17.648Z,48.50
2018-09-03T14:54:15.688Z,47.40
2018-09-03T14:57:15.489Z,46.30
2018-09-03T15:00:13.467Z,45.80
2018-09-03T15:03:13.368Z,46.00
2018-09-03T15:06:11.207Z,46.40
2018-09-03T15:09:09.284Z,46.40
2018-09-03T15:12:09.265Z,46.40
2018-09-03T15:15:08.391Z,46.20
2018-09-03T15:18:07.291Z,46.30
2018-09-03T15:21:05.294Z,46.30
2018-09-03T15:24:05.549Z,46.40
2018-09-03T15:27:06.702Z,46.50
2018-09-03T15:30:06.986Z,46.50
2018-09-03T15:33:06.919Z,46.30
2018-09-03T15:36:05.993Z,46.50
2018-09-03T15:39:07.007Z,46.50
2018-09-03T15:42:07.215Z,46.20
2018-09-03T15:45:08.142Z,44.30
2018-09-03T15:48:09.156Z,42.10
2018-09-03T15:51:10.412Z,39.20
2018-09-03T15:54:10.576Z,37.00
2018-09-03T15:57:09.541Z,34.30
2018-09-03T16:00:07.600Z,33.40
2018-09-03T16:03:05.681Z,31.80
2018-09-03T16:06:04.628Z,30.90
2018-09-03T16:09:02.773Z,30.00
2018-09-03T16:12:00.768Z,30.40
2018-09-03T16:14:59.953Z,30.00
2018-09-03T16:17:58.033Z,29.70
2018-09-03T16:20:56.369Z,29.10
2018-09-03T16:23:54.073Z,28.60
2018-09-03T16:26:51.982Z,29.10
2018-09-03T16:29:50.044Z,28.70
2018-09-03T16:32:48.068Z,29.00
2018-09-03T16:35:46.284Z,28.50
2018-09-03T16:38:44.279Z,28.60
2018-09-03T16:41:42.205Z,28.80
2018-09-03T16:44:41.189Z,28.60
2018-09-03T16:47:57.661Z,28.70
2018-09-03T16:51:16.899Z,29.20
2018-09-03T16:54:15.988Z,29.40
2018-09-03T16:57:14.045Z,30.00
2018-09-03T17:00:13.337Z,30.80
2018-09-03T17:03:11.399Z,32.40
2018-09-03T17:06:10.057Z,33.90
2018-09-03T17:09:08.172Z,35.10
2018-09-03T17:12:15.488Z,36.50
2018-09-03T17:15:14.479Z,37.60
2018-09-03T17:18:12.737Z,39.00
2018-09-03T17:21:10.899Z,39.20
2018-09-03T17:24:09.173Z,40.30
2018-09-03T17:27:07.141Z,40.80
2018-09-03T17:30:05.628Z,41.30
2018-09-03T17:33:03.984Z,42.10
2018-09-03T17:36:02.016Z,43.00
2018-09-03T17:39:00.276Z,43.90
2018-09-03T17:41:59.489Z,44.60
2018-09-03T17:44:57.743Z,45.20
2018-09-03T17:47:55.947Z,45.60
2018-09-03T17:50:55.094Z,45.90
2018-09-03T17:53:53.976Z,46.20
2018-09-03T17:56:53.007Z,47.50
2018-09-03T17:59:50.978Z,48.10
2018-09-03T18:02:49.001Z,49.00
2018-09-03T18:05:48.059Z,50.00
2018-09-03T18:08:45.999Z,50.70
2018-09-03T18:11:45.198Z,51.30
2018-09-03T18:14:44.389Z,53.00
2018-09-03T18:17:42.675Z,52.70
2018-09-03T18:20:40.719Z,53.20
2018-09-03T18:23:38.806Z,54.10
2018-09-03T18:26:36.844Z,54.90
2018-09-03T18:29:35.024Z,55.30
2018-09-03T18:32:33.385Z,56.40
2018-09-03T18:35:32.469Z,56.70
2018-09-03T18:38:32.528Z,57.30
2018-09-03T18:41:30.512Z,57.80
2018-09-03T18:44:28.564Z,58.50
2018-09-03T18:47:28.695Z,59.30
2018-09-03T18:50:26.783Z,59.70
2018-09-03T18:53:26.080Z,60.00
2018-09-03T18:56:24.007Z,61.20
2018-09-03T18:59:22.095Z,61.60
2018-09-03T19:02:20.207Z,61.90
2018-09-03T19:05:18.345Z,62.50
2018-09-03T19:08:16.206Z,63.10
2018-09-03T19:11:14.106Z,63.60
2018-09-03T19:14:12.069Z,64.00
2018-09-03T19:17:10.909Z,64.10
2018-09-03T19:20:08.976Z,64.60
2018-09-03T19:23:07.105Z,65.00
2018-09-03T19:26:05.394Z,65.40
2018-09-03T19:29:03.447Z,65.70
2018-09-03T19:32:01.521Z,66.20
2018-09-03T19:35:00.696Z,67.40
2018-09-03T19:37:58.664Z,67.40
2018-09-03T19:40:56.719Z,67.80
2018-09-03T19:43:54.995Z,67.70
2018-09-03T19:46:52.962Z,68.10
2018-09-03T19:49:50.900Z,68.50
2018-09-03T19:52:48.860Z,68.90
2018-09-03T19:55:47.125Z,69.20
2018-09-03T19:58:45.423Z,69.90
2018-09-03T20:01:45.296Z,71.00
2018-09-03T20:04:44.078Z,71.50
2018-09-03T20:07:42.039Z,72.60
2018-09-03T20:10:43.295Z,73.80
2018-09-03T20:13:43.129Z,74.10
2018-09-03T20:16:43.329Z,75.30
2018-09-03T20:19:45.101Z,75.30
2018-09-03T20:22:45.822Z,75.40
2018-09-03T20:25:45.493Z,75.70
2018-09-03T20:28:46.911Z,76.00
2018-09-03T20:31:47.153Z,76.40
2018-09-03T20:34:47.938Z,76.70
2018-09-03T20:37:48.053Z,77.00
2018-09-03T20:40:49.628Z,77.50
2018-09-03T20:43:50.859Z,78.30
2018-09-03T20:46:49.824Z,79.10
2018-09-03T20:49:49.814Z,81.00
2018-09-03T20:52:49.722Z,81.20
2018-09-03T20:55:49.644Z,81.10
2018-09-03T20:58:49.832Z,81.00
2018-09-03T21:01:51.889Z,80.80
2018-09-03T21:04:56.190Z,81.00
2018-09-03T21:07:58.194Z,81.30
2018-09-03T21:10:59.261Z,81.70
2018-09-03T21:14:00.896Z,82.50
2018-09-03T21:17:10.022Z,81.90
2018-09-03T21:20:13.173Z,82.10
2018-09-03T21:23:16.404Z,82.10
2018-09-03T21:26:18.727Z,82.60
2018-09-03T21:29:20.267Z,82.70
2018-09-03T21:32:22.395Z,83.00
2018-09-03T21:35:21.107Z,83.10
2018-09-03T21:38:18.990Z,83.80
2018-09-03T21:41:18.187Z,84.80
2018-09-03T21:44:16.439Z,85.00
2018-09-03T21:47:15.234Z,84.60
2018-09-03T21:50:13.397Z,84.80
2018-09-03T21:53:11.462Z,84.80
2018-09-03T21:56:10.256Z,85.00
2018-09-03T21:59:08.400Z,85.10
2018-09-03T22:02:07.583Z,85.10
2018-09-03T22:05:05.640Z,85.00
2018-09-03T22:08:03.708Z,86.00
2018-09-03T22:11:01.774Z,85.60
2018-09-03T22:13:59.773Z,85.80
2018-09-03T22:16:58.929Z,85.90
2018-09-03T22:19:56.864Z,86.10
2018-09-03T22:22:54.931Z,86.10
2018-09-03T22:25:52.891Z,86.80
2018-09-03T22:28:51.047Z,87.40
2018-09-03T22:31:49.112Z,88.50
2018-09-03T22:34:47.049Z,88.70
2018-09-03T22:37:45.120Z,88.50
2018-09-03T22:40:44.294Z,88.60
2018-09-03T22:43:42.164Z,88.30
2018-09-03T22:46:41.204Z,87.70
2018-09-03T22:49:39.127Z,88.00
2018-09-03T22:52:37.276Z,87.90
2018-09-03T22:55:35.220Z,88.00
2018-09-03T22:58:33.090Z,88.50
2018-09-03T23:01:32.174Z,88.30
2018-09-03T23:04:30.238Z,88.30
2018-09-03T23:07:28.394Z,89.20
2018-09-03T23:10:26.483Z,89.40
2018-09-03T23:13:24.591Z,89.30
2018-09-03T23:16:23.526Z,89.40
2018-09-03T23:19:21.795Z,88.90
2018-09-03T23:22:20.849Z,88.90
2018-09-03T23:25:18.729Z,88.70
2018-09-03T23:28:16.648Z,88.70
2018-09-03T23:31:14.704Z,88.70
2018-09-03T23:34:12.668Z,89.30
2018-09-03T23:37:10.936Z,89.30
2018-09-03T23:40:08.892Z,89.10
2018-09-03T23:43:06.855Z,89.30
2018-09-03T23:46:04.917Z,89.30
2018-09-03T23:49:02.756Z,88.90
2018-09-03T23:52:00.935Z,89.10
2018-09-03T23:54:58.888Z,89.30
2018-09-03T23:57:56.926Z,89.40
